createdAt,value
2023-04-23T00:04:44.864Z,4.97
2023-04-23T00:09:47.768Z,3.30
2023-04-23T00:14:50.575Z,4.70
2023-04-23T00:19:52.671Z,3.53
2023-04-23T00:24:54.679Z,4.80
2023-04-23T00:29:56.802Z,4.60
2023-04-23T00:40:01.193Z,6.55
2023-04-23T00:45:03.730Z,5.68
2023-04-23T00:50:06.683Z,6.18
2023-04-23T00:55:09.257Z,4.85
2023-04-23T01:05:16.121Z,5.30
2023-04-23T01:15:15.650Z,4.65
2023-04-23T01:20:17.991Z,4.60
2023-04-23T01:25:20.157Z,4.45
2023-04-23T01:30:22.592Z,4.68
2023-04-23T01:35:25.630Z,4.72
2023-04-23T01:40:27.965Z,4.63
2023-04-23T01:45:31.411Z,3.65
2023-04-23T01:50:33.798Z,4.70
2023-04-23T01:55:41.355Z,3.88
2023-04-23T02:00:43.790Z,4.03
2023-04-23T02:05:46.834Z,4.13
2023-04-23T02:10:49.825Z,3.97
2023-04-23T02:15:52.056Z,3.42
2023-04-23T02:22:47.356Z,3.00
2023-04-23T02:27:49.886Z,2.88
2023-04-23T02:32:52.196Z,3.47
2023-04-23T02:42:46.491Z,2.55
2023-04-23T02:47:48.718Z,2.80
2023-04-23T02:52:50.782Z,3.03
2023-04-23T02:57:52.970Z,3.20
2023-04-23T03:02:55.714Z,3.47
2023-04-23T03:07:57.917Z,3.38
2023-04-23T03:13:01.334Z,3.00
2023-04-23T03:18:04.557Z,4.03
2023-04-23T03:23:07.164Z,3.25
2023-04-23T03:28:09.417Z,3.55
2023-04-23T03:43:16.824Z,3.13
2023-04-23T03:48:37.380Z,2.90
2023-04-23T03:53:45.967Z,3.45
2023-04-23T03:59:10.264Z,4.20
2023-04-23T04:04:12.932Z,3.35
2023-04-23T04:09:17.112Z,3.22
2023-04-23T04:14:19.532Z,3.13
2023-04-23T04:19:21.543Z,3.83
2023-04-23T04:25:01.109Z,4.10
2023-04-23T04:30:44.208Z,4.15
2023-04-23T04:36:27.343Z,4.25
2023-04-23T04:41:29.433Z,5.07
2023-04-23T04:46:31.954Z,4.05
2023-04-23T04:51:34.273Z,4.03
2023-04-23T04:56:36.432Z,4.78
2023-04-23T05:01:38.655Z,4.85
2023-04-23T05:06:41.102Z,3.33
2023-04-23T05:11:43.419Z,4.00
2023-04-23T05:16:45.702Z,4.63
2023-04-23T05:21:47.975Z,3.88
2023-04-23T05:26:50.031Z,4.10
2023-04-23T05:31:52.318Z,4.10
2023-04-23T05:36:54.392Z,3.95
2023-04-23T05:41:56.490Z,4.18
2023-04-23T05:46:58.943Z,4.55
2023-04-23T05:52:03.006Z,4.50
2023-04-23T05:57:05.265Z,4.72
2023-04-23T06:02:09.468Z,4.60
2023-04-23T06:07:12.608Z,5.30
2023-04-23T06:12:14.620Z,4.20
2023-04-23T06:17:16.685Z,3.30
2023-04-23T06:22:18.797Z,3.42
2023-04-23T06:27:20.921Z,3.47
2023-04-23T06:32:25.601Z,4.72
2023-04-23T06:37:29.723Z,3.92
2023-04-23T06:42:32.344Z,4.38
2023-04-23T06:47:49.907Z,4.22
2023-04-23T06:52:52.881Z,3.35
2023-04-23T06:57:55.507Z,4.35
2023-04-23T07:02:57.601Z,5.40
2023-04-23T07:07:59.693Z,3.63
2023-04-23T07:13:01.969Z,4.60
2023-04-23T07:18:06.512Z,3.53
2023-04-23T07:23:08.680Z,4.10
2023-04-23T07:28:10.873Z,4.40
2023-04-23T07:33:13.088Z,4.35
2023-04-23T07:38:15.127Z,3.58
2023-04-23T07:43:17.307Z,4.65
2023-04-23T07:48:19.317Z,3.95
2023-04-23T07:53:21.813Z,3.65
2023-04-23T07:58:25.780Z,4.80
2023-04-23T08:03:29.210Z,3.78
2023-04-23T08:08:31.444Z,3.78
2023-04-23T08:13:33.831Z,4.78
2023-04-23T08:18:35.867Z,4.43
2023-04-23T08:23:37.903Z,4.32
2023-04-23T08:28:40.022Z,4.38
2023-04-23T08:33:42.074Z,4.80
2023-04-23T08:38:44.249Z,4.63
2023-04-23T08:44:15.726Z,4.55
2023-04-23T08:49:18.852Z,4.93
2023-04-23T08:54:28.248Z,5.25
2023-04-23T08:59:34.729Z,5.03
2023-04-23T09:04:37.554Z,4.97
2023-04-23T09:09:40.975Z,4.47
2023-04-23T09:14:43.621Z,3.95
2023-04-23T09:19:47.105Z,4.47
2023-04-23T09:24:49.304Z,4.63
2023-04-23T09:29:53.192Z,4.70
2023-04-23T09:34:57.330Z,4.53
2023-04-23T09:40:01.038Z,4.78
2023-04-23T09:45:06.624Z,4.78
2023-04-23T09:50:10.769Z,4.80
2023-04-23T09:55:13.001Z,4.53
2023-04-23T10:00:17.519Z,5.80
2023-04-23T10:05:27.316Z,4.65
2023-04-23T10:10:43.168Z,4.55
2023-04-23T10:15:54.171Z,5.13
2023-04-23T10:20:57.850Z,4.70
2023-04-23T10:26:01.792Z,4.45
2023-04-23T10:31:05.642Z,4.72
2023-04-23T10:36:12.104Z,5.43
2023-04-23T10:41:20.782Z,6.75
2023-04-23T10:46:30.418Z,5.65
2023-04-23T10:56:44.218Z,7.22
2023-04-23T11:01:52.780Z,6.53
2023-04-23T11:06:57.487Z,6.72
2023-04-23T11:12:01.893Z,6.38
2023-04-23T11:17:06.826Z,7.00
2023-04-23T11:22:18.565Z,12.02
2023-04-23T11:27:21.179Z,6.78
2023-04-23T11:32:24.423Z,5.95
2023-04-23T11:37:26.720Z,6.68
2023-04-23T11:42:29.518Z,8.02
2023-04-23T11:47:33.248Z,7.00
2023-04-23T11:52:36.054Z,6.72
2023-04-23T11:57:44.454Z,6.80
2023-04-23T12:02:58.414Z,5.38
2023-04-23T12:08:32.632Z,6.15
2023-04-23T12:13:34.826Z,3.78
2023-04-23T12:18:44.430Z,4.97
2023-04-23T12:23:51.742Z,5.20
2023-04-23T12:28:56.801Z,6.22
2023-04-23T12:34:08.308Z,6.57
2023-04-23T12:39:36.185Z,6.85
2023-04-23T12:44:39.096Z,6.60
2023-04-23T12:49:42.481Z,6.13
2023-04-23T12:54:45.113Z,6.28
2023-04-23T12:59:50.454Z,6.50
2023-04-23T13:04:54.557Z,4.55
2023-04-23T13:09:57.400Z,5.82
2023-04-23T13:14:59.527Z,5.60
2023-04-23T13:20:01.657Z,6.15
2023-04-23T13:25:04.313Z,5.75
2023-04-23T13:30:07.249Z,5.88
2023-04-23T13:35:09.879Z,7.45
2023-04-23T13:40:12.567Z,5.30
2023-04-23T13:45:14.983Z,4.45
2023-04-23T13:50:17.280Z,4.88
2023-04-23T13:55:19.338Z,4.38
2023-04-23T14:00:21.456Z,5.07
2023-04-23T14:05:23.466Z,4.05
2023-04-23T14:10:25.698Z,4.00
2023-04-23T14:15:28.211Z,3.97
2023-04-23T14:20:30.542Z,4.43
2023-04-23T14:25:40.914Z,3.88
2023-04-23T14:30:42.885Z,4.45
2023-04-23T14:40:46.674Z,3.67
2023-04-23T14:45:48.954Z,4.38
2023-04-23T14:50:51.279Z,3.40
2023-04-23T14:55:53.447Z,3.67
2023-04-23T15:00:55.763Z,3.60
2023-04-23T15:05:57.838Z,3.65
2023-04-23T15:11:00.264Z,3.40
2023-04-23T15:16:05.778Z,3.50
2023-04-23T15:21:08.297Z,3.88
2023-04-23T15:26:12.660Z,3.05
2023-04-23T15:31:14.849Z,3.55
2023-04-23T15:36:17.184Z,3.28
2023-04-23T15:41:19.365Z,3.58
2023-04-23T15:46:21.794Z,3.47
2023-04-23T15:51:23.995Z,3.13
2023-04-23T15:56:26.870Z,2.65
2023-04-23T16:01:29.883Z,4.00
2023-04-23T16:06:32.114Z,2.88
2023-04-23T16:11:38.393Z,2.70
2023-04-23T16:16:40.601Z,2.47
2023-04-23T16:21:42.761Z,2.78
2023-04-23T16:26:45.060Z,2.80
2023-04-23T16:31:47.373Z,3.08
2023-04-23T16:36:49.660Z,2.72
2023-04-23T16:41:52.579Z,2.60
2023-04-23T16:46:54.624Z,2.53
2023-04-23T16:51:56.871Z,2.72
2023-04-23T16:56:59.172Z,2.47
2023-04-23T17:02:01.384Z,2.38
2023-04-23T17:07:03.698Z,2.47
2023-04-23T17:12:05.740Z,2.10
2023-04-23T17:17:07.927Z,2.53
2023-04-23T17:22:10.821Z,2.65
2023-04-23T17:27:12.779Z,2.50
2023-04-23T17:32:15.192Z,2.30
2023-04-23T17:37:17.360Z,2.47
2023-04-23T17:42:19.829Z,2.53
2023-04-23T17:47:22.275Z,2.10
2023-04-23T17:52:24.836Z,2.40
2023-04-23T17:57:27.318Z,2.42
2023-04-23T18:02:29.545Z,2.88
2023-04-23T18:07:31.873Z,2.38
2023-04-23T18:12:34.516Z,2.72
2023-04-23T18:17:36.782Z,3.80
2023-04-23T18:22:41.309Z,2.92
2023-04-23T18:27:43.379Z,3.22
2023-04-23T18:32:59.763Z,3.80
2023-04-23T18:38:09.986Z,2.90
2023-04-23T18:43:12.175Z,3.47
2023-04-23T18:48:47.751Z,3.17
2023-04-23T18:53:50.210Z,2.72
2023-04-23T18:58:52.327Z,2.70
2023-04-23T19:03:54.967Z,2.88
2023-04-23T19:08:57.277Z,2.70
2023-04-23T19:13:59.359Z,3.17
2023-04-23T19:19:01.535Z,4.10
2023-04-23T19:24:03.618Z,2.95
2023-04-23T19:29:05.950Z,2.25
2023-04-23T19:34:08.337Z,2.75
2023-04-23T19:39:10.719Z,2.53
2023-04-23T19:44:12.752Z,2.78
2023-04-23T19:49:14.757Z,3.65
2023-04-23T19:54:17.096Z,4.03
2023-04-23T19:59:21.313Z,4.18
2023-04-23T20:04:23.543Z,4.40
2023-04-23T20:09:25.901Z,4.65
2023-04-23T20:14:29.088Z,3.85
2023-04-23T20:19:31.446Z,3.38
2023-04-23T20:24:33.856Z,3.38
2023-04-23T20:29:36.153Z,3.53
2023-04-23T20:34:38.360Z,4.32
2023-04-23T20:39:40.597Z,4.20
2023-04-23T20:44:45.704Z,3.35
2023-04-23T20:49:47.841Z,2.88
2023-04-23T20:54:50.047Z,3.08
2023-04-23T20:59:52.118Z,2.83
2023-04-23T21:04:54.002Z,2.72
2023-04-23T21:14:58.528Z,2.50
2023-04-23T21:20:00.888Z,2.35
2023-04-23T21:25:03.777Z,2.33
2023-04-23T21:30:14.497Z,2.97
2023-04-23T21:35:16.638Z,2.50
2023-04-23T21:40:18.882Z,2.90
2023-04-23T21:45:21.128Z,2.60
2023-04-23T21:50:24.780Z,2.13
2023-04-23T21:55:28.137Z,2.00
2023-04-23T22:00:30.254Z,2.38
2023-04-23T22:05:32.608Z,2.95
2023-04-23T22:10:34.701Z,2.42
2023-04-23T22:15:37.018Z,2.30
2023-04-23T22:20:39.210Z,2.13
2023-04-23T22:25:41.373Z,2.53
2023-04-23T22:30:43.941Z,2.55
2023-04-23T22:35:46.291Z,2.30
2023-04-23T22:40:48.253Z,2.42
2023-04-23T22:50:52.673Z,1.83
2023-04-23T22:55:55.096Z,2.20
2023-04-23T23:00:57.120Z,2.10
2023-04-23T23:11:01.187Z,2.30
2023-04-23T23:16:05.923Z,5.20
2023-04-23T23:21:07.994Z,3.50
2023-04-23T23:31:12.270Z,2.33
2023-04-23T23:36:14.270Z,2.30
2023-04-23T23:46:18.592Z,1.98
2023-04-23T23:51:20.746Z,3.35
2023-04-23T23:56:22.871Z,3.00
